Time;durP1;ratioP1;P1;durP2;ratioP2;P2;SDS_P1;SDS_P2;PMS_P1;PMS_P2;Temp;Humidity;BMP_temperature;BMP_pressure;BME280_temperature;BME280_humidity;BME280_pressure;Samples;Min_cycle;Max_cycle;Signal;HPM_P1;HPM_P2
2022/10/04 00:00:10;;;;;;;7.05;5.10;;;;;;;10.25;81.32;100297.78;342133;28;1133;-66
2022/10/04 00:00:36;;;;;;;8.25;5.13;;;;;;;10.29;81.14;100291.66;342076;28;1199;-66
2022/10/04 00:00:49;;;;;;;8.70;5.20;;;;;;;10.30;81.63;100289.94;342222;28;1078;-66
2022/10/04 00:01:09;;;;;;;6.78;5.05;;;;;;;10.32;81.01;100294.22;342158;28;1640;-66
2022/10/04 00:01:22;;;;;;;6.82;4.97;;;;;;;10.34;81.47;100292.44;342086;28;1158;-66
2022/10/04 00:01:57;;;;;;;7.38;4.90;;;;;;;10.34;80.86;100297.66;342289;28;1260;-66
2022/10/04 00:02:19;;;;;;;8.13;5.32;;;;;;;10.36;81.15;100293.28;340899;28;1056;-65
2022/10/04 00:02:33;;;;;;;7.25;5.10;;;;;;;10.32;81.07;100291.63;341837;28;1760;-65
2022/10/04 00:02:46;;;;;;;7.82;5.20;;;;;;;10.32;81.06;100289.03;340915;28;1147;-66
2022/10/04 00:03:10;;;;;;;6.78;4.95;;;;;;;10.36;81.05;100293.28;341142;28;1243;-66
2022/10/04 00:03:29;;;;;;;6.93;5.07;;;;;;;10.33;81.29;100295.91;341243;28;1251;-65
2022/10/04 00:03:50;;;;;;;7.18;5.63;;;;;;;10.36;81.41;100295.00;340689;28;2468;-64
2022/10/04 00:04:09;;;;;;;6.60;5.13;;;;;;;10.32;81.47;100294.22;342184;28;2232;-65
2022/10/04 00:04:27;;;;;;;7.13;4.90;;;;;;;10.34;81.29;100286.38;341317;28;1082;-66
2022/10/04 00:04:50;;;;;;;6.28;4.93;;;;;;;10.33;81.13;100290.72;340891;28;1305;-65
2022/10/04 00:05:11;;;;;;;5.38;4.70;;;;;;;10.27;81.06;100289.97;342216;28;1981;-65
2022/10/04 00:05:24;;;;;;;6.03;4.70;;;;;;;10.25;81.00;100292.59;342201;28;1282;-66
2022/10/04 00:05:39;;;;;;;6.22;5.15;;;;;;;10.27;81.01;100296.03;343477;28;1150;-66
2022/10/04 00:05:56;;;;;;;7.05;5.10;;;;;;;10.28;81.43;100292.56;343078;28;1838;-66
2022/10/04 00:06:15;;;;;;;6.88;4.70;;;;;;;10.23;81.34;100288.34;342015;28;1047;-66
2022/10/04 00:06:28;;;;;;;7.45;4.57;;;;;;;10.25;80.99;100292.59;342060;28;1170;-66
2022/10/04 00:06:53;;;;;;;9.90;4.68;;;;;;;10.27;81.26;100293.41;341870;28;2197;-65
2022/10/04 00:07:15;;;;;;;6.75;4.60;;;;;;;10.25;81.01;100289.16;340783;29;1071;-65
2022/10/04 00:07:32;;;;;;;8.02;4.80;;;;;;;10.17;81.32;100297.94;341532;28;2019;-66
2022/10/04 00:07:50;;;;;;;6.88;4.85;;;;;;;10.18;81.33;100291.88;341707;28;2204;-66
2022/10/04 00:08:17;;;;;;;5.95;4.85;;;;;;;10.24;81.83;100296.09;342015;28;2214;-65
2022/10/04 00:08:41;;;;;;;7.20;4.90;;;;;;;10.23;81.58;100289.19;342034;28;1232;-65
2022/10/04 00:09:05;;;;;;;6.03;4.70;;;;;;;10.23;81.17;100288.34;341710;28;1942;-65
2022/10/04 00:09:28;;;;;;;6.55;5.28;;;;;;;10.22;81.36;100282.25;342226;28;1504;-67
2022/10/04 00:10:06;;;;;;;7.45;5.10;;;;;;;10.24;81.08;100284.81;341340;28;1855;-66
2022/10/04 00:10:36;;;;;;;7.95;4.72;;;;;;;10.26;81.29;100286.53;340361;28;2070;-65
2022/10/04 00:10:48;;;;;;;6.50;4.65;;;;;;;10.26;81.57;100281.34;342164;28;1350;-66
2022/10/04 00:11:16;;;;;;;6.50;4.63;;;;;;;10.29;81.32;100283.84;342174;28;2109;-66
2022/10/04 00:11:42;;;;;;;6.70;4.90;;;;;;;10.29;81.41;100280.41;342292;28;1073;-66
2022/10/04 00:11:55;;;;;;;5.80;4.68;;;;;;;10.26;81.33;100281.34;341611;28;1974;-65
2022/10/04 00:12:37;;;;;;;6.07;4.78;;;;;;;10.23;81.44;100276.19;340971;28;1099;-65
2022/10/04 00:12:55;;;;;;;7.25;4.82;;;;;;;10.25;81.37;100277.00;341371;28;2180;-65
2022/10/04 00:13:17;;;;;;;7.45;4.90;;;;;;;10.28;81.21;100286.47;342044;28;1352;-66
2022/10/04 00:13:30;;;;;;;6.97;4.82;;;;;;;10.29;80.85;100283.00;341531;28;2468;-66
2022/10/04 00:13:49;;;;;;;6.60;5.00;;;;;;;10.28;80.71;100276.97;341644;28;1928;-64
2022/10/04 00:14:08;;;;;;;6.13;4.95;;;;;;;10.28;80.43;100279.56;341751;28;2072;-65
2022/10/04 00:14:23;;;;;;;6.18;4.75;;;;;;;10.27;80.42;100280.44;342120;28;1275;-67
2022/10/04 00:14:37;;;;;;;6.22;4.70;;;;;;;10.26;80.86;100280.44;342124;28;1297;-65
2022/10/04 00:14:54;;;;;;;7.32;4.82;;;;;;;10.23;80.82;100278.78;341474;28;2322;-65
2022/10/04 00:15:30;;;;;;;7.13;4.80;;;;;;;10.20;80.65;100278.84;341620;28;2163;-65
2022/10/04 00:15:48;;;;;;;5.60;4.45;;;;;;;10.21;80.99;100280.56;338651;28;6100;-65
2022/10/04 00:16:01;;;;;;;5.93;4.53;;;;;;;10.19;80.45;100282.34;341085;28;3532;-65
2022/10/04 00:16:21;;;;;;;5.40;4.45;;;;;;;10.19;80.61;100279.75;341660;28;1958;-65
2022/10/04 00:16:37;;;;;;;5.40;4.55;;;;;;;10.14;80.13;100279.84;342019;28;1691;-65
2022/10/04 00:16:51;;;;;;;8.63;4.72;;;;;;;10.11;80.45;100279.03;342283;28;1697;-65
2022/10/04 00:17:11;;;;;;;8.65;4.72;;;;;;;10.14;80.87;100286.75;342434;28;1030;-65
2022/10/04 00:17:26;;;;;;;5.85;4.40;;;;;;;10.15;81.04;100281.53;342240;28;1333;-65
2022/10/04 00:17:38;;;;;;;5.53;4.43;;;;;;;10.18;80.62;100280.63;341127;28;1071;-66
2022/10/04 00:18:01;;;;;;;6.05;4.55;;;;;;;10.19;80.64;100275.38;341373;28;2907;-66
2022/10/04 00:18:39;;;;;;;6.30;4.50;;;;;;;10.20;80.52;100278.84;341411;28;1743;-65
2022/10/04 00:19:19;;;;;;;6.22;4.70;;;;;;;10.18;80.47;100272.81;341623;28;1843;-66
2022/10/04 00:19:46;;;;;;;6.30;4.50;;;;;;;10.21;80.50;100270.16;341619;28;2659;-65
2022/10/04 00:19:58;;;;;;;5.05;4.55;;;;;;;10.20;81.03;100273.63;341092;28;1081;-65
2022/10/04 00:20:49;;;;;;;5.22;4.68;;;;;;;10.21;80.83;100270.16;342092;28;1083;-65
2022/10/04 00:21:03;;;;;;;6.45;4.72;;;;;;;10.19;80.52;100270.19;338086;29;1840;-66
2022/10/04 00:21:15;;;;;;;5.97;4.70;;;;;;;10.22;80.61;100268.41;338322;29;1163;-65
2022/10/04 00:22:09;;;;;;;5.75;4.38;;;;;;;10.15;79.97;100270.31;341023;28;1214;-65
2022/10/04 00:22:26;;;;;;;6.32;4.78;;;;;;;10.11;80.04;100268.66;341529;28;1327;-65
2022/10/04 00:23:18;;;;;;;5.05;4.10;;;;;;;9.98;79.99;100276.69;342710;28;1138;-65
2022/10/04 00:23:36;;;;;;;5.60;4.40;;;;;;;10.03;80.47;100276.59;336740;29;1210;-65
2022/10/04 00:23:48;;;;;;;5.88;4.25;;;;;;;10.04;80.48;100278.31;337496;28;2390;-65
2022/10/04 00:24:10;;;;;;;5.63;4.15;;;;;;;10.06;80.85;100280.88;342285;28;1829;-65
2022/10/04 00:24:24;;;;;;;5.15;4.40;;;;;;;10.04;80.47;100287.84;341545;28;1334;-66
2022/10/04 00:24:37;;;;;;;5.07;4.55;;;;;;;10.00;80.66;100287.91;342373;28;979;-66
2022/10/04 00:25:07;;;;;;;6.22;4.88;;;;;;;10.03;80.64;100287.00;341490;28;2175;-66
2022/10/04 00:25:20;;;;;;;5.82;4.35;;;;;;;9.96;80.30;100286.28;340935;28;2178;-66
2022/10/04 00:25:35;;;;;;;5.88;4.47;;;;;;;9.99;80.26;100291.38;341738;28;1768;-65
2022/10/04 00:25:47;;;;;;;5.20;4.35;;;;;;;10.00;80.54;100287.91;341731;28;2203;-65
2022/10/04 00:26:03;;;;;;;5.30;4.40;;;;;;;10.01;80.50;100286.16;341802;28;1829;-66
2022/10/04 00:26:24;;;;;;;5.07;4.53;;;;;;;9.98;80.29;100288.84;341353;28;1028;-65
2022/10/04 00:26:45;;;;;;;6.22;4.22;;;;;;;9.94;80.60;100290.63;341229;28;1320;-65
2022/10/04 00:27:09;;;;;;;5.60;4.10;;;;;;;9.92;80.47;100286.34;341991;28;1754;-65
2022/10/04 00:27:23;;;;;;;6.97;4.55;;;;;;;9.90;80.34;100286.38;341303;28;1607;-65
2022/10/04 00:27:37;;;;;;;5.93;4.50;;;;;;;9.91;80.46;100290.69;341655;28;2198;-66
2022/10/04 00:28:25;;;;;;;5.80;4.55;;;;;;;9.91;80.78;100288.09;341853;28;1857;-65
2022/10/04 00:28:38;;;;;;;6.82;4.43;;;;;;;9.88;80.65;100287.28;340987;28;2287;-65
2022/10/04 00:28:50;;;;;;;6.85;4.25;;;;;;;9.91;80.52;100298.47;341408;28;2317;-66
2022/10/04 00:29:35;;;;;;;6.80;4.30;;;;;;;9.92;80.52;100289.81;342224;28;1615;-66
2022/10/04 00:30:02;;;;;;;5.45;4.40;;;;;;;9.84;80.92;100289.09;340749;28;2288;-66
2022/10/04 00:30:22;;;;;;;7.00;4.50;;;;;;;9.79;80.91;100283.13;341902;28;1657;-65
2022/10/04 00:30:37;;;;;;;7.35;4.68;;;;;;;9.64;81.01;100288.59;340861;28;1050;-65
2022/10/04 00:31:10;;;;;;;6.93;4.82;;;;;;;9.65;81.65;100287.72;341977;28;1627;-65
2022/10/04 00:31:24;;;;;;;5.32;4.45;;;;;;;9.66;81.85;100298.09;340952;28;1156;-65
2022/10/04 00:32:08;;;;;;;5.63;4.55;;;;;;;9.68;81.83;100287.66;341102;28;1031;-65
2022/10/04 00:32:26;;;;;;;4.88;4.30;;;;;;;9.71;81.81;100291.06;341067;28;1701;-65
2022/10/04 00:32:39;;;;;;;5.05;4.35;;;;;;;9.73;81.81;100298.81;341027;28;1106;-66
2022/10/04 00:33:02;;;;;;;5.28;4.50;;;;;;;9.79;81.84;100294.38;341640;28;2229;-65
2022/10/04 00:33:41;;;;;;;6.88;4.30;;;;;;;9.79;81.60;100283.97;340965;28;1100;-66
2022/10/04 00:34:08;;;;;;;5.65;4.55;;;;;;;9.84;81.71;100291.72;341718;28;1456;-65
2022/10/04 00:34:19;;;;;;;6.20;4.57;;;;;;;9.87;81.18;100291.63;341112;28;2034;-65
2022/10/04 00:34:31;;;;;;;7.50;4.65;;;;;;;9.89;81.37;100289.84;342246;28;1695;-65
2022/10/04 00:34:51;;;;;;;6.90;4.32;;;;;;;9.87;81.63;100289.03;342255;28;1257;-66
2022/10/04 00:35:23;;;;;;;5.93;4.60;;;;;;;9.72;81.19;100291.94;342207;28;1852;-65
2022/10/04 00:35:35;;;;;;;5.78;4.68;;;;;;;9.71;81.54;100285.88;341013;28;1075;-66
2022/10/04 00:35:51;;;;;;;5.15;4.55;;;;;;;9.73;81.42;100283.25;340821;28;2193;-66
2022/10/04 00:36:52;;;;;;;5.18;4.47;;;;;;;9.82;81.78;100288.28;341497;28;1871;-66
2022/10/04 00:37:13;;;;;;;5.88;4.80;;;;;;;9.84;81.84;100289.09;337077;29;2569;-66
2022/10/04 00:37:26;;;;;;;6.65;4.72;;;;;;;9.83;81.34;100284.78;337889;29;1397;-65
2022/10/04 00:38:07;;;;;;;6.97;4.85;;;;;;;9.80;81.64;100284.84;338142;29;1056;-65
2022/10/04 00:38:26;;;;;;;7.40;4.97;;;;;;;9.83;81.90;100289.13;340654;28;1786;-66
2022/10/04 00:38:38;;;;;;;6.60;4.88;;;;;;;9.82;81.62;100288.28;341149;28;1049;-66
2022/10/04 00:39:13;;;;;;;5.80;4.70;;;;;;;9.85;81.71;100287.34;341540;28;2228;-66
2022/10/04 00:39:38;;;;;;;6.07;4.88;;;;;;;9.85;81.74;100288.22;342228;28;1388;-66
2022/10/04 00:40:15;;;;;;;6.13;5.20;;;;;;;9.84;81.79;100285.63;341527;28;2402;-66
2022/10/04 00:40:33;;;;;;;6.03;4.60;;;;;;;9.80;81.30;100292.66;340801;28;2177;-65
2022/10/04 00:40:53;;;;;;;5.47;4.40;;;;;;;9.81;81.58;100286.56;342399;28;1940;-65
2022/10/04 00:41:07;;;;;;;5.25;4.28;;;;;;;9.82;81.47;100288.28;342365;28;1056;-65
2022/10/04 00:41:20;;;;;;;5.18;4.22;;;;;;;9.85;81.60;100283.00;342289;28;2050;-65
2022/10/04 00:41:47;;;;;;;6.13;4.50;;;;;;;9.85;81.16;100280.41;341877;28;1759;-66
2022/10/04 00:42:11;;;;;;;7.32;4.80;;;;;;;9.87;80.92;100283.84;341644;28;1584;-65
2022/10/04 00:42:48;;;;;;;6.13;4.55;;;;;;;9.87;81.34;100281.25;342275;28;1285;-65
2022/10/04 00:43:09;;;;;;;5.43;4.70;;;;;;;9.84;80.99;100286.50;341634;28;1436;-66
2022/10/04 00:43:41;;;;;;;6.75;5.00;;;;;;;9.86;81.45;100282.16;341821;28;1250;-66
2022/10/04 00:43:56;;;;;;;5.90;4.70;;;;;;;9.87;81.36;100286.44;341911;28;1725;-65
2022/10/04 00:44:26;;;;;;;5.85;4.72;;;;;;;9.85;81.51;100283.00;342346;28;1223;-65
2022/10/04 00:44:46;;;;;;;5.07;4.55;;;;;;;9.84;81.41;100280.44;341100;28;1192;-65
2022/10/04 00:45:27;;;;;;;6.45;4.70;;;;;;;9.84;81.38;100283.91;341499;28;1471;-64
2022/10/04 00:45:48;;;;;;;6.22;4.85;;;;;;;9.85;81.39;100283.00;339077;29;1187;-65
2022/10/04 00:46:10;;;;;;;5.43;4.47;;;;;;;9.81;81.05;100286.56;341657;28;1897;-65
2022/10/04 00:46:26;;;;;;;5.75;4.55;;;;;;;9.79;81.25;100277.94;342230;28;1271;-66
2022/10/04 00:46:40;;;;;;;6.55;4.88;;;;;;;9.80;81.55;100290.06;342425;28;1301;-65
2022/10/04 00:46:55;;;;;;;6.22;4.72;;;;;;;9.74;81.31;100275.44;341728;28;1662;-65
2022/10/04 00:47:36;;;;;;;5.20;4.60;;;;;;;9.77;81.74;100285.75;341675;28;1220;-65
2022/10/04 00:47:48;;;;;;;5.57;4.43;;;;;;;9.77;81.30;100284.91;338429;29;2238;-66
2022/10/04 00:48:24;;;;;;;7.28;4.47;;;;;;;9.80;81.16;100280.50;339181;29;1597;-65
2022/10/04 00:48:53;;;;;;;5.78;4.60;;;;;;;9.83;81.17;100279.59;342368;28;1102;-65
2022/10/04 00:49:08;;;;;;;6.30;4.82;;;;;;;9.80;80.92;100282.25;341988;28;1816;-66
2022/10/04 00:49:23;;;;;;;6.55;5.00;;;;;;;9.81;81.13;100276.16;341714;28;1546;-66
2022/10/04 00:49:40;;;;;;;6.45;4.90;;;;;;;9.81;81.38;100278.75;341079;28;1284;-65
2022/10/04 00:50:01;;;;;;;5.95;4.55;;;;;;;9.80;81.05;100270.13;341476;28;1680;-65
2022/10/04 00:50:21;;;;;;;5.32;4.30;;;;;;;9.79;81.35;100277.94;341222;28;1318;-66
2022/10/04 00:50:38;;;;;;;6.25;4.82;;;;;;;9.83;81.03;100273.56;341655;28;1757;-66
2022/10/04 00:51:10;;;;;;;6.00;4.72;;;;;;;9.74;80.38;100269.41;341094;28;1100;-66
2022/10/04 00:51:39;;;;;;;7.18;4.70;;;;;;;9.68;79.75;100272.09;341146;28;2150;-66
2022/10/04 00:52:07;;;;;;;5.30;4.50;;;;;;;9.72;79.98;100276.38;341766;28;2506;-66
2022/10/04 00:52:25;;;;;;;6.45;4.88;;;;;;;9.62;78.97;100280.88;341327;28;1427;-66
2022/10/04 00:52:44;;;;;;;6.85;4.90;;;;;;;9.60;79.00;100273.09;342488;28;1175;-66
2022/10/04 00:52:59;;;;;;;6.27;4.60;;;;;;;9.60;79.20;100267.91;341954;28;1493;-65
2022/10/04 00:53:52;;;;;;;7.10;4.40;;;;;;;9.62;79.52;100274.78;341017;28;1023;-65
2022/10/04 00:54:29;;;;;;;5.55;4.40;;;;;;;9.57;80.41;100267.94;341000;28;1907;-66
2022/10/04 00:54:49;;;;;;;6.72;4.70;;;;;;;9.60;80.56;100273.09;340785;28;1298;-66
2022/10/04 00:55:07;;;;;;;7.07;4.68;;;;;;;9.60;79.93;100272.25;342401;28;1741;-65
2022/10/04 00:55:24;;;;;;;6.72;4.80;;;;;;;9.49;79.97;100275.03;342766;28;1883;-66
2022/10/04 00:55:47;;;;;;;6.28;4.72;;;;;;;9.52;79.91;100267.19;342102;28;1007;-66
2022/10/04 00:56:05;;;;;;;5.53;4.63;;;;;;;9.51;80.28;100268.06;342579;28;1754;-66
2022/10/04 00:57:04;;;;;;;5.82;4.43;;;;;;;9.49;79.89;100264.66;342188;28;1286;-66
2022/10/04 00:57:21;;;;;;;5.43;4.50;;;;;;;9.43;79.70;100269.94;342733;28;1239;-66
2022/10/04 00:57:40;;;;;;;5.45;4.57;;;;;;;9.41;79.93;100274.31;342381;28;894;-66
2022/10/04 00:57:58;;;;;;;5.93;4.75;;;;;;;9.38;80.35;100274.38;341640;28;1511;-66
2022/10/04 00:58:38;;;;;;;5.47;4.63;;;;;;;9.35;80.46;100266.63;341203;28;1211;-66
2022/10/04 00:58:53;;;;;;;5.10;4.30;;;;;;;9.37;80.06;100270.06;340669;28;2056;-66
2022/10/04 00:59:37;;;;;;;5.00;4.20;;;;;;;9.30;79.37;100271.91;342477;28;1352;-65
2022/10/04 01:00:02;;;;;;;7.72;4.35;;;;;;;9.31;79.47;100268.44;338207;28;2326;-65
2022/10/04 01:00:18;;;;;;;6.15;4.65;;;;;;;9.23;79.31;100264.25;341916;28;1771;-65
2022/10/04 01:00:32;;;;;;;6.18;4.88;;;;;;;9.16;79.41;100269.56;341004;28;1325;-65
2022/10/04 01:00:47;;;;;;;6.43;4.70;;;;;;;9.12;79.49;100265.31;341603;28;1854;-66
2022/10/04 01:01:02;;;;;;;6.30;4.67;;;;;;;9.13;79.65;100267.00;341614;28;1812;-65
2022/10/04 01:01:20;;;;;;;5.63;4.57;;;;;;;9.13;79.65;100269.59;342185;28;1135;-66
2022/10/04 01:01:34;;;;;;;5.32;4.30;;;;;;;8.99;80.43;100264.66;342207;28;1128;-65
2022/10/04 01:01:51;;;;;;;5.63;4.45;;;;;;;9.06;81.07;100268.00;342025;28;2279;-65
2022/10/04 01:02:20;;;;;;;6.55;4.97;;;;;;;9.07;81.32;100261.91;342299;28;1850;-65
2022/10/04 01:02:44;;;;;;;8.35;5.20;;;;;;;9.01;80.95;100264.63;341894;28;1043;-65
2022/10/04 01:03:23;;;;;;;7.28;4.78;;;;;;;9.00;81.22;100265.50;340976;28;1068;-65
2022/10/04 01:03:38;;;;;;;6.88;5.00;;;;;;;9.06;81.06;100260.22;341401;28;1772;-65
2022/10/04 01:03:53;;;;;;;6.05;4.70;;;;;;;9.06;81.04;100255.03;342071;28;2048;-65
2022/10/04 01:04:22;;;;;;;6.30;4.50;;;;;;;9.11;81.26;100263.56;342282;28;1099;-65
2022/10/04 01:04:40;;;;;;;6.13;4.25;;;;;;;9.13;80.97;100261.81;340869;28;1067;-65
2022/10/04 01:04:59;;;;;;;6.10;4.30;;;;;;;9.10;80.95;100261.88;341592;28;1654;-66
2022/10/04 01:05:18;;;;;;;6.53;4.75;;;;;;;9.08;81.36;100263.66;340923;28;1781;-65
2022/10/04 01:05:38;;;;;;;7.68;4.85;;;;;;;9.13;81.56;100261.81;341720;28;1722;-65
2022/10/04 01:05:56;;;;;;;6.53;4.70;;;;;;;9.17;81.51;100263.47;341694;28;2215;-65
2022/10/04 01:06:10;;;;;;;7.90;4.60;;;;;;;9.15;81.06;100265.22;342134;28;1095;-66
2022/10/04 01:06:24;;;;;;;8.30;4.68;;;;;;;9.17;81.09;100266.06;341470;28;1349;-65
2022/10/04 01:06:37;;;;;;;6.93;4.72;;;;;;;9.11;80.44;100268.75;340850;28;947;-65
2022/10/04 01:06:50;;;;;;;6.10;4.65;;;;;;;9.07;80.55;100259.31;340928;28;2194;-65
2022/10/04 01:07:03;;;;;;;5.50;4.63;;;;;;;9.07;80.45;100256.72;341560;28;1798;-65
2022/10/04 01:07:22;;;;;;;5.93;4.43;;;;;;;9.13;80.70;100261.81;342169;28;1730;-65
2022/10/04 01:07:42;;;;;;;6.30;4.70;;;;;;;9.06;80.80;100264.56;340743;28;2367;-65
2022/10/04 01:08:03;;;;;;;6.55;5.05;;;;;;;8.99;80.34;100263.78;342386;28;1278;-65
2022/10/04 01:08:22;;;;;;;5.28;4.15;;;;;;;8.99;80.71;100266.38;341169;28;1068;-66
2022/10/04 01:08:44;;;;;;;5.88;4.43;;;;;;;8.87;80.80;100266.56;341176;28;1154;-65
2022/10/04 01:09:04;;;;;;;6.00;4.38;;;;;;;8.89;81.52;100262.22;342155;28;1613;-65
2022/10/04 01:09:17;;;;;;;6.22;4.50;;;;;;;8.82;81.74;100265.81;341620;28;1286;-64
2022/10/04 01:09:33;;;;;;;6.28;4.60;;;;;;;8.79;81.90;100267.56;342145;28;2084;-65
2022/10/04 01:09:52;;;;;;;6.50;4.78;;;;;;;8.85;81.62;100269.19;342801;28;2289;-65
2022/10/04 01:10:10;;;;;;;6.00;4.70;;;;;;;8.80;81.30;100264.09;342490;28;1362;-65
2022/10/04 01:10:54;;;;;;;5.97;4.70;;;;;;;8.80;81.66;100269.25;343301;28;1377;-66
2022/10/04 01:11:14;;;;;;;6.28;4.70;;;;;;;8.79;82.14;100267.56;339443;29;1009;-66
2022/10/04 01:11:29;;;;;;;5.80;4.40;;;;;;;8.87;82.63;100266.56;338881;28;1292;-66
2022/10/04 01:11:46;;;;;;;7.15;4.65;;;;;;;8.86;82.96;100263.13;342169;28;1355;-66
2022/10/04 01:12:22;;;;;;;6.97;5.00;;;;;;;8.93;83.58;100269.06;341619;28;2235;-66
2022/10/04 01:12:44;;;;;;;6.95;5.05;;;;;;;9.02;83.34;100268.94;341032;28;1160;-66
2022/10/04 01:13:11;;;;;;;6.32;4.40;;;;;;;9.13;83.04;100264.41;342076;28;1733;-66
2022/10/04 01:13:28;;;;;;;5.95;4.82;;;;;;;9.16;83.41;100271.31;341635;28;1516;-67
2022/10/04 01:13:55;;;;;;;5.57;4.80;;;;;;;9.10;83.20;100274.84;342214;28;1302;-66
2022/10/04 01:14:19;;;;;;;5.35;4.45;;;;;;;9.04;83.34;100269.75;341857;28;1190;-65
2022/10/04 01:14:45;;;;;;;6.60;4.75;;;;;;;9.01;83.87;100272.38;341250;29;930;-65
2022/10/04 01:15:13;;;;;;;8.07;5.10;;;;;;;9.09;83.78;100280.91;341648;28;1537;-66
2022/10/04 01:15:32;;;;;;;7.32;5.40;;;;;;;9.09;84.21;100272.28;342082;28;1328;-66
2022/10/04 01:16:10;;;;;;;8.70;5.10;;;;;;;9.17;83.74;100267.81;342306;28;1969;-66
2022/10/04 01:16:25;;;;;;;6.28;5.10;;;;;;;8.93;84.61;100274.25;341805;28;1304;-66
2022/10/04 01:16:38;;;;;;;6.88;5.15;;;;;;;8.93;84.88;100271.66;342559;28;1280;-66
2022/10/04 01:16:50;;;;;;;7.55;5.32;;;;;;;8.96;84.95;100266.44;341604;28;2421;-66
2022/10/04 01:17:03;;;;;;;7.43;5.40;;;;;;;9.00;84.67;100273.28;342447;28;1631;-66
2022/10/04 01:17:15;;;;;;;7.13;5.13;;;;;;;9.00;84.39;100271.53;342383;28;1136;-66
2022/10/04 01:17:27;;;;;;;8.02;5.20;;;;;;;9.00;84.59;100273.28;341114;28;2126;-66
2022/10/04 01:17:39;;;;;;;8.02;5.22;;;;;;;8.98;84.72;100267.28;341656;28;1761;-66
2022/10/04 01:18:11;;;;;;;8.00;5.00;;;;;;;9.03;84.34;100265.44;342412;28;1028;-65
2022/10/04 01:18:23;;;;;;;8.30;5.18;;;;;;;9.00;84.19;100265.50;341904;28;1350;-66
2022/10/04 01:18:37;;;;;;;8.23;4.95;;;;;;;9.00;84.34;100266.34;341693;28;2786;-66
2022/10/04 01:18:49;;;;;;;7.47;5.07;;;;;;;9.00;84.19;100265.50;341562;28;2283;-66
2022/10/04 01:19:23;;;;;;;8.07;4.90;;;;;;;8.77;84.64;100269.31;341593;28;1444;-66
2022/10/04 01:19:35;;;;;;;6.95;5.28;;;;;;;8.85;85.01;100265.75;342338;28;1208;-66
2022/10/04 01:19:52;;;;;;;7.80;5.43;;;;;;;8.91;85.02;100265.66;342024;28;1812;-65
2022/10/04 01:20:33;;;;;;;7.78;5.40;;;;;;;9.02;84.98;100268.09;341517;28;1806;-66
2022/10/04 01:20:51;;;;;;;8.25;5.07;;;;;;;9.06;84.57;100259.38;340846;28;1015;-66
2022/10/04 01:21:21;;;;;;;6.50;4.95;;;;;;;8.95;84.07;100256.94;341082;28;1643;-67
2022/10/04 01:21:34;;;;;;;6.07;4.90;;;;;;;8.90;84.22;100263.94;342382;28;1285;-65
2022/10/04 01:21:56;;;;;;;7.50;5.07;;;;;;;8.90;84.46;100269.97;342166;28;1429;-65
2022/10/04 01:22:17;;;;;;;7.32;5.13;;;;;;;8.97;84.22;100261.25;342720;28;1023;-65
2022/10/04 01:22:47;;;;;;;7.15;4.82;;;;;;;9.02;83.71;100262.91;341909;28;1058;-65
2022/10/04 01:22:59;;;;;;;7.88;5.07;;;;;;;8.96;83.63;100263.84;341601;28;1565;-65
2022/10/04 01:23:30;;;;;;;6.60;5.10;;;;;;;8.93;83.02;100263.88;340815;29;2128;-65
2022/10/04 01:24:14;;;;;;;5.63;4.70;;;;;;;8.89;83.28;100262.22;340783;29;1071;-66
2022/10/04 01:24:33;;;;;;;9.30;5.10;;;;;;;8.95;84.40;100256.94;338496;29;1272;-65
2022/10/04 01:24:45;;;;;;;10.30;5.45;;;;;;;8.99;84.63;100253.41;340757;28;1651;-65
2022/10/04 01:24:57;;;;;;;9.63;5.43;;;;;;;8.97;84.57;100257.75;341411;28;1807;-65
2022/10/04 01:25:30;;;;;;;7.95;5.25;;;;;;;8.97;84.50;100255.16;341274;28;1478;-65
2022/10/04 01:25:49;;;;;;;6.90;4.70;;;;;;;9.04;84.65;100250.75;340832;28;1105;-65
2022/10/04 01:26:04;;;;;;;6.57;4.60;;;;;;;9.09;84.45;100259.31;341092;28;1821;-66
2022/10/04 01:26:38;;;;;;;7.05;4.65;;;;;;;9.15;84.40;100254.00;342355;28;1613;-66
2022/10/04 01:26:50;;;;;;;7.53;4.90;;;;;;;9.13;84.09;100261.81;341807;28;2204;-65
2022/10/04 01:27:23;;;;;;;7.40;4.88;;;;;;;9.17;84.24;100249.66;342262;28;1415;-64
2022/10/04 01:27:41;;;;;;;6.35;5.03;;;;;;;9.10;83.96;100246.31;341195;28;1251;-65
2022/10/04 01:27:53;;;;;;;6.30;4.95;;;;;;;9.13;84.10;100246.25;341049;28;1604;-65
2022/10/04 01:28:05;;;;;;;5.88;4.82;;;;;;;9.17;84.28;100249.66;342039;28;1760;-66
2022/10/04 01:28:17;;;;;;;6.15;4.70;;;;;;;9.18;84.09;100247.03;342239;28;1283;-66
2022/10/04 01:28:32;;;;;;;7.80;4.70;;;;;;;9.20;84.14;100252.22;341899;28;1681;-65
2022/10/04 01:28:44;;;;;;;7.82;4.80;;;;;;;9.20;83.69;100249.63;342148;28;2444;-64
2022/10/04 01:29:10;;;;;;;6.47;4.88;;;;;;;9.16;83.70;100251.41;342342;28;1671;-65
2022/10/04 01:29:30;;;;;;;6.97;4.90;;;;;;;9.14;83.71;100247.97;342048;28;1264;-66
2022/10/04 01:29:42;;;;;;;6.13;4.75;;;;;;;9.15;83.95;100249.66;342382;28;1270;-66
2022/10/04 01:29:54;;;;;;;6.72;4.93;;;;;;;9.11;83.80;100248.00;342202;28;2258;-66
2022/10/04 01:30:12;;;;;;;6.75;5.00;;;;;;;9.08;83.68;100248.09;342034;28;1968;-66
2022/10/04 01:30:24;;;;;;;5.95;4.93;;;;;;;9.14;83.82;100241.94;342105;28;1080;-66
2022/10/04 01:30:37;;;;;;;5.65;4.68;;;;;;;9.11;84.03;100240.22;342607;28;1229;-66
2022/10/04 01:30:50;;;;;;;5.38;4.57;;;;;;;9.17;83.81;100242.72;341800;28;2037;-67
2022/10/04 01:31:01;;;;;;;6.25;4.65;;;;;;;9.06;83.90;100244.66;341918;28;1847;-65
2022/10/04 01:31:14;;;;;;;6.80;4.80;;;;;;;9.11;84.22;100242.81;342566;28;1562;-66
2022/10/04 01:31:28;;;;;;;7.45;4.90;;;;;;;9.14;84.08;100240.19;341652;28;1858;-66
2022/10/04 01:31:47;;;;;;;7.53;4.80;;;;;;;9.12;84.03;100244.56;340656;29;1000;-66
2022/10/04 01:32:00;;;;;;;8.32;5.00;;;;;;;9.05;83.88;100248.13;341219;28;1813;-66
2022/10/04 01:32:12;;;;;;;7.22;4.72;;;;;;;9.03;83.77;100244.69;341646;28;3085;-65
2022/10/04 01:32:24;;;;;;;8.07;4.55;;;;;;;9.04;83.82;100241.25;342273;28;1334;-65
2022/10/04 01:32:38;;;;;;;8.27;4.70;;;;;;;9.04;83.83;100241.25;342533;28;1063;-66
2022/10/04 01:32:50;;;;;;;7.05;4.60;;;;;;;9.02;84.18;100237.81;341572;28;2084;-66
2022/10/04 01:33:05;;;;;;;6.25;4.85;;;;;;;9.04;83.94;100241.25;341603;28;1422;-65
2022/10/04 01:33:18;;;;;;;6.88;5.22;;;;;;;8.99;83.93;100243.91;342473;28;1291;-65
2022/10/04 01:33:30;;;;;;;6.60;5.10;;;;;;;9.00;84.04;100243.03;342434;28;1077;-65
2022/10/04 01:33:42;;;;;;;6.05;4.75;;;;;;;9.01;83.63;100246.47;341742;28;2014;-65
2022/10/04 01:33:54;;;;;;;6.43;4.78;;;;;;;9.03;83.69;100242.09;341546;28;1495;-65
2022/10/04 01:34:07;;;;;;;7.22;4.78;;;;;;;9.05;83.64;100242.94;342458;28;2157;-66
2022/10/04 01:34:22;;;;;;;6.80;4.70;;;;;;;9.05;83.54;100240.34;342374;28;1532;-66
2022/10/04 01:34:34;;;;;;;5.90;4.75;;;;;;;9.10;83.67;100246.31;340788;28;1854;-66
2022/10/04 01:34:46;;;;;;;7.03;4.80;;;;;;;9.08;83.67;100237.72;342311;28;1882;-66
2022/10/04 01:34:58;;;;;;;7.30;4.40;;;;;;;9.05;83.18;100237.75;342635;28;1172;-66
2022/10/04 01:35:12;;;;;;;7.10;4.40;;;;;;;9.06;83.63;100239.47;342837;28;1027;-66
2022/10/04 01:35:25;;;;;;;5.88;4.93;;;;;;;9.07;83.30;100232.53;341246;28;1368;-66
2022/10/04 01:35:38;;;;;;;6.85;5.20;;;;;;;9.10;83.45;100238.53;342415;28;1553;-65
2022/10/04 01:35:50;;;;;;;6.97;5.13;;;;;;;9.09;83.36;100231.63;341948;28;2214;-64
2022/10/04 01:36:02;;;;;;;6.55;5.00;;;;;;;9.11;83.19;100240.22;341809;28;1888;-65
2022/10/04 01:36:14;;;;;;;6.28;4.85;;;;;;;9.09;83.26;100239.41;342717;28;1126;-65
2022/10/04 01:36:27;;;;;;;6.05;4.53;;;;;;;9.14;83.13;100242.78;342689;28;1318;-65
2022/10/04 01:36:40;;;;;;;5.45;4.30;;;;;;;9.16;83.10;100233.25;342280;28;1617;-65
2022/10/04 01:36:56;;;;;;;5.63;4.45;;;;;;;9.13;82.89;100230.69;341515;28;2283;-65
2022/10/04 01:37:08;;;;;;;6.68;4.63;;;;;;;9.12;82.55;100238.53;342576;28;1125;-66
2022/10/04 01:37:20;;;;;;;7.00;4.55;;;;;;;9.11;82.35;100237.63;341903;28;1333;-64
2022/10/04 01:37:32;;;;;;;6.82;4.78;;;;;;;9.14;82.57;100237.59;341875;28;2169;-65
2022/10/04 01:37:44;;;;;;;7.05;4.70;;;;;;;9.16;82.46;100235.84;342600;28;1073;-65
2022/10/04 01:37:56;;;;;;;6.95;4.72;;;;;;;9.18;82.52;100238.41;342199;28;1695;-65
2022/10/04 01:38:08;;;;;;;6.60;4.53;;;;;;;9.20;82.61;100236.66;342331;28;1071;-65
2022/10/04 01:38:20;;;;;;;6.85;4.50;;;;;;;9.21;82.69;100230.56;342136;28;2215;-65
2022/10/04 01:38:32;;;;;;;6.22;4.30;;;;;;;9.24;82.60;100232.28;342651;28;1251;-65
2022/10/04 01:38:44;;;;;;;6.60;4.63;;;;;;;9.23;82.83;100230.53;342599;28;1104;-65